sensor_id;sensor_type;location;lat;lon;timestamp;pressure;altitude;pressure_sealevel;temperature;humidity
60089;BME280;45961;53.574;55.878;2022-08-07T00:00:21;100260.59;;;17.26;66.83
60089;BME280;45961;53.574;55.878;2022-08-07T00:01:22;100266.66;;;17.28;66.64
60089;BME280;45961;53.574;55.878;2022-08-07T00:02:23;100264.13;;;17.24;66.74
60089;BME280;45961;53.574;55.878;2022-08-07T00:03:24;100265.84;;;17.26;66.48
60089;BME280;45961;53.574;55.878;2022-08-07T00:04:26;100275.59;;;17.17;66.85
60089;BME280;45961;53.574;55.878;2022-08-07T00:05:27;100275.59;;;17.17;66.82
60089;BME280;45961;53.574;55.878;2022-08-07T00:06:28;100274.78;;;17.13;67.11
60089;BME280;45961;53.574;55.878;2022-08-07T00:07:29;100273.00;;;17.15;66.84
60089;BME280;45961;53.574;55.878;2022-08-07T00:08:29;100269.56;;;17.13;67.01
60089;BME280;45961;53.574;55.878;2022-08-07T00:09:30;100277.41;;;17.12;67.33
60089;BME280;45961;53.574;55.878;2022-08-07T00:10:31;100270.47;;;17.11;67.13
60089;BME280;45961;53.574;55.878;2022-08-07T00:11:32;100273.06;;;17.11;67.20
60089;BME280;45961;53.574;55.878;2022-08-07T00:12:33;100276.63;;;17.07;67.43
60089;BME280;45961;53.574;55.878;2022-08-07T00:13:33;100280.28;;;16.98;67.84
60089;BME280;45961;53.574;55.878;2022-08-07T00:14:36;100273.28;;;16.98;67.52
60089;BME280;45961;53.574;55.878;2022-08-07T00:15:37;100280.28;;;16.98;67.53
60089;BME280;45961;53.574;55.878;2022-08-07T00:16:38;100275.03;;;16.96;67.69
60089;BME280;45961;53.574;55.878;2022-08-07T00:17:39;100281.09;;;17.00;67.55
60089;BME280;45961;53.574;55.878;2022-08-07T00:18:41;100273.28;;;16.98;67.72
60089;BME280;45961;53.574;55.878;2022-08-07T00:19:42;100281.16;;;16.95;67.76
60089;BME280;45961;53.574;55.878;2022-08-07T00:20:43;100275.25;;;16.86;68.66
60089;BME280;45961;53.574;55.878;2022-08-07T00:21:44;100278.00;;;16.76;69.05
60089;BME280;45961;53.574;55.878;2022-08-07T00:22:44;100280.66;;;16.73;68.93
60089;BME280;45961;53.574;55.878;2022-08-07T00:23:45;100285.06;;;16.67;69.22
60089;BME280;45961;53.574;55.878;2022-08-07T00:24:46;100275.56;;;16.61;69.28
60089;BME280;45961;53.574;55.878;2022-08-07T00:25:47;100275.66;;;16.55;69.18
60089;BME280;45961;53.574;55.878;2022-08-07T00:26:49;100282.69;;;16.50;69.97
60089;BME280;45961;53.574;55.878;2022-08-07T00:27:52;100274.94;;;16.45;70.10
60089;BME280;45961;53.574;55.878;2022-08-07T00:28:52;100274.06;;;16.43;70.24
60089;BME280;45961;53.574;55.878;2022-08-07T00:29:53;100275.88;;;16.41;70.72
60089;BME280;45961;53.574;55.878;2022-08-07T00:30:54;100268.91;;;16.39;70.49
60089;BME280;45961;53.574;55.878;2022-08-07T00:31:55;100268.03;;;16.41;70.28
60089;BME280;45961;53.574;55.878;2022-08-07T00:32:59;100269.78;;;16.39;70.25
60089;BME280;45961;53.574;55.878;2022-08-07T00:34:00;100269.72;;;16.44;69.67
60089;BME280;45961;53.574;55.878;2022-08-07T00:35:01;100268.00;;;16.44;69.77
60089;BME280;45961;53.574;55.878;2022-08-07T00:36:04;100269.84;;;16.35;70.02
60089;BME280;45961;53.574;55.878;2022-08-07T00:37:04;100266.44;;;16.28;70.23
60089;BME280;45961;53.574;55.878;2022-08-07T00:38:06;100267.44;;;16.19;70.22
60089;BME280;45961;53.574;55.878;2022-08-07T00:39:07;100271.88;;;16.14;70.37
60089;BME280;45961;53.574;55.878;2022-08-07T00:40:07;100272.78;;;16.10;70.35
60089;BME280;45961;53.574;55.878;2022-08-07T00:41:09;100278.06;;;16.06;70.84
60089;BME280;45961;53.574;55.878;2022-08-07T00:42:11;100269.38;;;16.03;70.82
60089;BME280;45961;53.574;55.878;2022-08-07T00:43:14;100277.28;;;16.00;70.73
60089;BME280;45961;53.574;55.878;2022-08-07T00:44:15;100274.66;;;15.99;70.99
60089;BME280;45961;53.574;55.878;2022-08-07T00:45:16;100274.66;;;15.99;70.95
60089;BME280;45961;53.574;55.878;2022-08-07T00:46:17;100270.31;;;16.01;71.06
60089;BME280;45961;53.574;55.878;2022-08-07T00:47:18;100277.19;;;16.07;70.39
60089;BME280;45961;53.574;55.878;2022-08-07T00:48:19;100276.28;;;16.09;70.33
60089;BME280;45961;53.574;55.878;2022-08-07T00:49:20;100274.59;;;16.05;70.40
60089;BME280;45961;53.574;55.878;2022-08-07T00:50:21;100279.78;;;16.08;70.53
60089;BME280;45961;53.574;55.878;2022-08-07T00:51:24;100275.44;;;16.07;70.40
60089;BME280;45961;53.574;55.878;2022-08-07T00:52:25;100270.25;;;16.06;70.40
60089;BME280;45961;53.574;55.878;2022-08-07T00:53:26;100274.59;;;16.03;70.34
60089;BME280;45961;53.574;55.878;2022-08-07T00:54:27;100279.06;;;15.95;70.61
60089;BME280;45961;53.574;55.878;2022-08-07T00:55:27;100274.91;;;15.81;71.10
60089;BME280;45961;53.574;55.878;2022-08-07T00:56:29;100276.56;;;15.86;71.14
60089;BME280;45961;53.574;55.878;2022-08-07T00:57:30;100274.91;;;15.81;71.54
60089;BME280;45961;53.574;55.878;2022-08-07T00:58:31;100277.53;;;15.77;71.64
60089;BME280;45961;53.574;55.878;2022-08-07T00:59:32;100268.91;;;15.71;71.29
60089;BME280;45961;53.574;55.878;2022-08-07T01:00:34;100276.78;;;15.66;71.86
60089;BME280;45961;53.574;55.878;2022-08-07T01:01:35;100268.09;;;15.64;72.35
60089;BME280;45961;53.574;55.878;2022-08-07T01:02:36;100272.47;;;15.59;72.99
60089;BME280;45961;53.574;55.878;2022-08-07T01:03:36;100274.25;;;15.57;72.93
60089;BME280;45961;53.574;55.878;2022-08-07T01:04:37;100269.00;;;15.59;72.70
60089;BME280;45961;53.574;55.878;2022-08-07T01:05:39;100275.94;;;15.61;72.53
60089;BME280;45961;53.574;55.878;2022-08-07T01:06:40;100268.13;;;15.58;72.51
60089;BME280;45961;53.574;55.878;2022-08-07T01:07:42;100271.56;;;15.63;72.97
60089;BME280;45961;53.574;55.878;2022-08-07T01:08:43;100268.09;;;15.64;72.45
60089;BME280;45961;53.574;55.878;2022-08-07T01:09:47;100262.88;;;15.63;72.46
60089;BME280;45961;53.574;55.878;2022-08-07T01:10:48;100262.88;;;15.63;72.20
60089;BME280;45961;53.574;55.878;2022-08-07T01:11:50;100256.78;;;15.62;71.97
60089;BME280;45961;53.574;55.878;2022-08-07T01:12:50;100261.25;;;15.52;72.23
60089;BME280;45961;53.574;55.878;2022-08-07T01:13:52;100255.13;;;15.57;72.28
60089;BME280;45961;53.574;55.878;2022-08-07T01:14:53;100250.78;;;15.54;72.14
60089;BME280;45961;53.574;55.878;2022-08-07T01:15:58;100262.13;;;15.51;72.47
60089;BME280;45961;53.574;55.878;2022-08-07T01:16:59;100259.44;;;15.59;72.20
60089;BME280;45961;53.574;55.878;2022-08-07T01:18:03;100261.25;;;15.51;73.09
60089;BME280;45961;53.574;55.878;2022-08-07T01:19:04;100267.34;;;15.51;72.74
60089;BME280;45961;53.574;55.878;2022-08-07T01:20:12;100263.97;;;15.42;72.21
60089;BME280;45961;53.574;55.878;2022-08-07T01:21:16;100262.19;;;15.45;72.06
60089;BME280;45961;53.574;55.878;2022-08-07T01:22:19;100264.00;;;15.40;72.07
60089;BME280;45961;53.574;55.878;2022-08-07T01:23:21;100264.00;;;15.37;71.74
60089;BME280;45961;53.574;55.878;2022-08-07T01:24:23;100264.00;;;15.37;72.15
60089;BME280;45961;53.574;55.878;2022-08-07T01:25:25;100267.47;;;15.38;72.50
60089;BME280;45961;53.574;55.878;2022-08-07T01:26:25;100263.06;;;15.46;72.54
60089;BME280;45961;53.574;55.878;2022-08-07T01:27:28;100266.53;;;15.43;72.43
60089;BME280;45961;53.574;55.878;2022-08-07T01:28:29;100268.38;;;15.37;72.17
60089;BME280;45961;53.574;55.878;2022-08-07T01:29:30;100270.06;;;15.41;71.48
60089;BME280;45961;53.574;55.878;2022-08-07T01:30:33;100266.56;;;15.42;71.38
60089;BME280;45961;53.574;55.878;2022-08-07T01:31:37;100269.16;;;15.45;71.14
60089;BME280;45961;53.574;55.878;2022-08-07T01:32:38;100269.97;;;15.50;71.02
60089;BME280;45961;53.574;55.878;2022-08-07T01:33:39;100269.13;;;15.48;71.18
60089;BME280;45961;53.574;55.878;2022-08-07T01:34:40;100272.56;;;15.53;71.27
60089;BME280;45961;53.574;55.878;2022-08-07T01:35:45;100272.50;;;15.58;71.19
60089;BME280;45961;53.574;55.878;2022-08-07T01:36:48;100269.88;;;15.59;71.11
60089;BME280;45961;53.574;55.878;2022-08-07T01:37:54;100269.84;;;15.65;71.28
60089;BME280;45961;53.574;55.878;2022-08-07T01:38:56;100276.72;;;15.71;71.59
60089;BME280;45961;53.574;55.878;2022-08-07T01:39:58;100268.00;;;15.76;71.54
60089;BME280;45961;53.574;55.878;2022-08-07T01:41:12;100275.81;;;15.76;72.30
60089;BME280;45961;53.574;55.878;2022-08-07T01:42:13;100274.81;;;15.88;72.04
60089;BME280;45961;53.574;55.878;2022-08-07T01:43:14;100279.97;;;15.93;72.08
60089;BME280;45961;53.574;55.878;2022-08-07T01:44:15;100279.09;;;15.94;71.92
60089;BME280;45961;53.574;55.878;2022-08-07T01:45:17;100274.69;;;15.96;71.79
60089;BME280;45961;53.574;55.878;2022-08-07T01:46:24;100270.34;;;15.98;71.65
60089;BME280;45961;53.574;55.878;2022-08-07T01:47:26;100269.41;;;16.02;71.48
60089;BME280;45961;53.574;55.878;2022-08-07T01:48:27;100271.09;;;16.06;71.80
60089;BME280;45961;53.574;55.878;2022-08-07T01:49:28;100281.50;;;16.09;71.80
60089;BME280;45961;53.574;55.878;2022-08-07T01:50:30;100277.13;;;16.13;71.18
60089;BME280;45961;53.574;55.878;2022-08-07T01:51:31;100278.81;;;16.17;70.87
60089;BME280;45961;53.574;55.878;2022-08-07T01:52:32;100274.94;;;16.44;70.15
60089;BME280;45961;53.574;55.878;2022-08-07T01:53:35;100274.25;;;16.91;68.82
60089;BME280;45961;53.574;55.878;2022-08-07T01:54:38;100271.47;;;17.51;67.26
60089;BME280;45961;53.574;55.878;2022-08-07T01:55:44;100268.78;;;18.03;65.53
60089;BME280;45961;53.574;55.878;2022-08-07T01:56:48;100263.53;;;18.43;63.86
60089;BME280;45961;53.574;55.878;2022-08-07T01:57:51;100266.00;;;18.88;62.19
60089;BME280;45961;53.574;55.878;2022-08-07T01:59:03;100264.88;;;19.32;61.00
60089;BME280;45961;53.574;55.878;2022-08-07T02:00:07;100263.56;;;19.83;59.14
60089;BME280;45961;53.574;55.878;2022-08-07T02:01:23;100263.91;;;20.30;57.83
60089;BME280;45961;53.574;55.878;2022-08-07T02:02:29;100268.88;;;20.68;56.59
60089;BME280;45961;53.574;55.878;2022-08-07T02:03:32;100261.41;;;21.09;55.86
60089;BME280;45961;53.574;55.878;2022-08-07T02:04:39;100266.94;;;21.53;54.59
60089;BME280;45961;53.574;55.878;2022-08-07T02:05:46;100253.47;;;22.09;53.40
60089;BME280;45961;53.574;55.878;2022-08-07T02:06:52;100260.09;;;22.43;52.08
60089;BME280;45961;53.574;55.878;2022-08-07T02:07:56;100256.69;;;22.63;51.61
60089;BME280;45961;53.574;55.878;2022-08-07T02:09:08;100264.25;;;22.72;51.27
60089;BME280;45961;53.574;55.878;2022-08-07T02:10:10;100270.22;;;22.55;51.71
60089;BME280;45961;53.574;55.878;2022-08-07T02:11:14;100271.16;;;22.53;52.06
60089;BME280;45961;53.574;55.878;2022-08-07T02:12:15;100274.78;;;22.28;52.69
60089;BME280;45961;53.574;55.878;2022-08-07T02:13:25;100280.78;;;22.07;52.92
60089;BME280;45961;53.574;55.878;2022-08-07T02:14:27;100272.16;;;22.03;54.00
60089;BME280;45961;53.574;55.878;2022-08-07T02:15:30;100277.31;;;22.06;54.54
60089;BME280;45961;53.574;55.878;2022-08-07T02:16:31;100277.53;;;22.47;54.14
60089;BME280;45961;53.574;55.878;2022-08-07T02:17:33;100274.63;;;22.99;53.50
60089;BME280;45961;53.574;55.878;2022-08-07T02:18:35;100271.25;;;22.95;52.54
60089;BME280;45961;53.574;55.878;2022-08-07T02:19:38;100273.97;;;23.14;52.64
60089;BME280;45961;53.574;55.878;2022-08-07T02:20:41;100280.84;;;23.18;52.52
60089;BME280;45961;53.574;55.878;2022-08-07T02:21:43;100273.00;;;23.17;52.00
60089;BME280;45961;53.574;55.878;2022-08-07T02:22:45;100269.34;;;22.77;52.32
60089;BME280;45961;53.574;55.878;2022-08-07T02:23:46;100272.50;;;22.63;53.12
60089;BME280;45961;53.574;55.878;2022-08-07T02:24:48;100275.34;;;22.80;53.10
60089;BME280;45961;53.574;55.878;2022-08-07T02:25:51;100281.50;;;22.12;54.22
60089;BME280;45961;53.574;55.878;2022-08-07T02:26:58;100282.28;;;22.15;54.34
60089;BME280;45961;53.574;55.878;2022-08-07T02:28:00;100276.38;;;22.32;54.63
60089;BME280;45961;53.574;55.878;2022-08-07T03:34:09;100304.78;;;23.97;54.15
60089;BME280;45961;53.574;55.878;2022-08-07T03:35:16;100298.44;;;24.01;54.41
60089;BME280;45961;53.574;55.878;2022-08-07T03:36:19;100298.00;;;23.71;54.96
60089;BME280;45961;53.574;55.878;2022-08-07T03:37:21;100303.47;;;23.86;54.94
60089;BME280;45961;53.574;55.878;2022-08-07T03:38:23;100305.97;;;24.29;54.03
60089;BME280;45961;53.574;55.878;2022-08-07T03:39:26;100303.69;;;24.40;52.95
60089;BME280;45961;53.574;55.878;2022-08-07T03:40:29;100307.28;;;24.19;53.05
60089;BME280;45961;53.574;55.878;2022-08-07T03:41:32;100308.19;;;24.38;52.77
60089;BME280;45961;53.574;55.878;2022-08-07T03:42:35;100316.28;;;24.14;53.48
60089;BME280;45961;53.574;55.878;2022-08-07T03:43:38;100315.19;;;24.39;53.01
60089;BME280;45961;53.574;55.878;2022-08-07T03:44:42;100312.88;;;24.12;53.20
60089;BME280;45961;53.574;55.878;2022-08-07T03:45:46;100307.84;;;24.46;52.82
60089;BME280;45961;53.574;55.878;2022-08-07T03:46:49;100319.88;;;24.13;53.45
60089;BME280;45961;53.574;55.878;2022-08-07T03:47:51;100315.69;;;23.89;53.56
60089;BME280;45961;53.574;55.878;2022-08-07T03:48:54;100306.44;;;23.58;54.16
60089;BME280;45961;53.574;55.878;2022-08-07T03:49:56;100322.09;;;23.83;53.91
60089;BME280;45961;53.574;55.878;2022-08-07T03:51:01;100313.06;;;23.69;54.25
60089;BME280;45961;53.574;55.878;2022-08-07T03:52:10;100322.03;;;23.85;54.79
60089;BME280;45961;53.574;55.878;2022-08-07T03:53:12;100315.41;;;23.95;54.33
60089;BME280;45961;53.574;55.878;2022-08-07T03:54:15;100318.94;;;23.75;54.61
60089;BME280;45961;53.574;55.878;2022-08-07T03:55:16;100321.91;;;23.68;54.30
60089;BME280;45961;53.574;55.878;2022-08-07T03:56:20;100326.19;;;23.91;54.53
60089;BME280;45961;53.574;55.878;2022-08-07T03:57:25;100322.28;;;23.58;54.65
60089;BME280;45961;53.574;55.878;2022-08-07T03:58:27;100322.16;;;23.41;55.46
60089;BME280;45961;53.574;55.878;2022-08-07T03:59:29;100316.69;;;23.86;54.77
60089;BME280;45961;53.574;55.878;2022-08-07T04:00:32;100312.88;;;24.12;54.33
60089;BME280;45961;53.574;55.878;2022-08-07T04:01:39;100311.16;;;24.30;53.89
60089;BME280;45961;53.574;55.878;2022-08-07T04:02:42;100318.13;;;23.94;53.68
60089;BME280;45961;53.574;55.878;2022-08-07T04:03:48;100308.31;;;23.96;54.23
60089;BME280;45961;53.574;55.878;2022-08-07T04:04:50;100317.19;;;23.95;54.54
60089;BME280;45961;53.574;55.878;2022-08-07T04:05:51;100322.53;;;24.13;53.86
60089;BME280;45961;53.574;55.878;2022-08-07T04:06:56;100320.97;;;24.28;53.62
60089;BME280;45961;53.574;55.878;2022-08-07T04:07:58;100317.00;;;23.99;54.18
60089;BME280;45961;53.574;55.878;2022-08-07T04:09:03;100320.16;;;24.07;54.17
60089;BME280;45961;53.574;55.878;2022-08-07T04:10:05;100313.19;;;24.25;53.74
60089;BME280;45961;53.574;55.878;2022-08-07T04:11:07;100314.47;;;24.17;53.61
60089;BME280;45961;53.574;55.878;2022-08-07T04:12:12;100318.81;;;24.18;53.58
60089;BME280;45961;53.574;55.878;2022-08-07T04:13:14;100320.94;;;24.49;53.20
60089;BME280;45961;53.574;55.878;2022-08-07T04:14:16;100319.16;;;24.49;53.40
60089;BME280;45961;53.574;55.878;2022-08-07T04:15:19;100303.81;;;24.75;53.18
60089;BME280;45961;53.574;55.878;2022-08-07T04:16:20;100304.41;;;24.99;52.62
60089;BME280;45961;53.574;55.878;2022-08-07T04:17:21;100303.53;;;24.98;52.12
60089;BME280;45961;53.574;55.878;2022-08-07T04:18:29;100321.88;;;24.84;52.63
60089;BME280;45961;53.574;55.878;2022-08-07T04:19:31;100312.84;;;24.88;52.24
60089;BME280;45961;53.574;55.878;2022-08-07T04:20:32;100307.16;;;24.78;52.32
60089;BME280;45961;53.574;55.878;2022-08-07T04:21:33;100311.25;;;24.48;52.66
60089;BME280;45961;53.574;55.878;2022-08-07T04:22:36;100314.34;;;24.38;53.27
60089;BME280;45961;53.574;55.878;2022-08-07T04:23:39;100318.34;;;24.66;52.89
60089;BME280;45961;53.574;55.878;2022-08-07T04:24:41;100297.19;;;24.83;52.57
60089;BME280;45961;53.574;55.878;2022-08-07T04:25:46;100308.53;;;25.04;52.34
60089;BME280;45961;53.574;55.878;2022-08-07T04:26:48;100317.78;;;25.15;51.67
60089;BME280;45961;53.574;55.878;2022-08-07T04:27:50;100308.75;;;25.19;51.27
60089;BME280;45961;53.574;55.878;2022-08-07T04:28:51;100303.75;;;25.30;50.72
60089;BME280;45961;53.574;55.878;2022-08-07T04:29:53;100306.56;;;25.27;51.04
60089;BME280;45961;53.574;55.878;2022-08-07T04:30:55;100303.44;;;25.36;51.35
60089;BME280;45961;53.574;55.878;2022-08-07T04:32:01;100304.63;;;25.30;51.43
60089;BME280;45961;53.574;55.878;2022-08-07T04:33:09;100307.50;;;25.26;51.03
60089;BME280;45961;53.574;55.878;2022-08-07T04:34:14;100310.63;;;25.34;50.57
60089;BME280;45961;53.574;55.878;2022-08-07T04:35:16;100311.84;;;25.09;50.43
60089;BME280;45961;53.574;55.878;2022-08-07T04:36:19;100288.91;;;25.08;50.38
60089;BME280;45961;53.574;55.878;2022-08-07T04:37:23;100312.78;;;25.43;50.15
60089;BME280;45961;53.574;55.878;2022-08-07T04:38:26;100316.06;;;25.48;50.63
60089;BME280;45961;53.574;55.878;2022-08-07T04:39:27;100305.47;;;25.31;50.75
60089;BME280;45961;53.574;55.878;2022-08-07T04:40:33;100313.75;;;25.06;51.38
60089;BME280;45961;53.574;55.878;2022-08-07T04:41:34;100305.81;;;25.06;51.17
60089;BME280;45961;53.574;55.878;2022-08-07T04:42:36;100310.91;;;25.28;50.88
60089;BME280;45961;53.574;55.878;2022-08-07T04:43:39;100302.28;;;25.42;50.80
60089;BME280;45961;53.574;55.878;2022-08-07T04:44:43;100299.38;;;25.64;50.46
60089;BME280;45961;53.574;55.878;2022-08-07T04:47:19;100301.47;;;25.92;49.20
60089;BME280;45961;53.574;55.878;2022-08-07T04:50:11;100309.19;;;26.12;48.43
60089;BME280;45961;53.574;55.878;2022-08-07T04:52:11;100310.13;;;25.95;47.70
60089;BME280;45961;53.574;55.878;2022-08-07T04:53:28;100306.50;;;25.96;47.96
60089;BME280;45961;53.574;55.878;2022-08-07T04:55:52;100310.28;;;26.25;48.60
60089;BME280;45961;53.574;55.878;2022-08-07T04:57:06;100309.75;;;26.19;48.68
60089;BME280;45961;53.574;55.878;2022-08-07T04:59:31;100314.03;;;26.37;47.54
60089;BME280;45961;53.574;55.878;2022-08-07T05:00:37;100306.84;;;26.39;47.67
60089;BME280;45961;53.574;55.878;2022-08-07T05:01:58;100300.06;;;26.18;47.45
60089;BME280;45961;53.574;55.878;2022-08-07T05:04:19;100294.63;;;26.03;48.18
60089;BME280;45961;53.574;55.878;2022-08-07T05:05:39;100299.41;;;25.97;48.74
60089;BME280;45961;53.574;55.878;2022-08-07T05:06:57;100300.66;;;26.23;49.05
60089;BME280;45961;53.574;55.878;2022-08-07T05:09:11;100299.00;;;26.04;48.66
60089;BME280;45961;53.574;55.878;2022-08-07T05:10:22;100291.31;;;26.16;48.18
60089;BME280;45961;53.574;55.878;2022-08-07T05:11:30;100299.41;;;26.30;48.28
60089;BME280;45961;53.574;55.878;2022-08-07T05:12:39;100287.91;;;26.14;48.29
60089;BME280;45961;53.574;55.878;2022-08-07T05:13:49;100296.03;;;26.11;47.86
60089;BME280;45961;53.574;55.878;2022-08-07T05:14:52;100300.38;;;26.12;47.26
60089;BME280;45961;53.574;55.878;2022-08-07T05:15:55;100302.00;;;25.98;47.38
60089;BME280;45961;53.574;55.878;2022-08-07T05:16:59;100299.84;;;26.05;47.48
60089;BME280;45961;53.574;55.878;2022-08-07T05:18:06;100294.94;;;26.15;47.38
60089;BME280;45961;53.574;55.878;2022-08-07T05:19:13;100298.19;;;26.20;46.48
60089;BME280;45961;53.574;55.878;2022-08-07T05:20:19;100288.03;;;25.95;46.55
60089;BME280;45961;53.574;55.878;2022-08-07T05:21:28;100295.22;;;26.42;46.22
60089;BME280;45961;53.574;55.878;2022-08-07T05:22:34;100291.91;;;26.54;46.20
60089;BME280;45961;53.574;55.878;2022-08-07T05:24:10;100295.44;;;26.05;46.52
60089;BME280;45961;53.574;55.878;2022-08-07T05:25:14;100295.09;;;26.12;47.17
60089;BME280;45961;53.574;55.878;2022-08-07T05:26:19;100285.28;;;26.45;46.93
60089;BME280;45961;53.574;55.878;2022-08-07T05:27:24;100293.47;;;26.41;45.76
60089;BME280;45961;53.574;55.878;2022-08-07T05:28:29;100297.91;;;26.57;45.63
60089;BME280;45961;53.574;55.878;2022-08-07T05:29:33;100285.97;;;26.65;46.00
60089;BME280;45961;53.574;55.878;2022-08-07T05:30:41;100288.53;;;26.82;45.09
60089;BME280;45961;53.574;55.878;2022-08-07T05:31:43;100284.97;;;26.97;44.69
60089;BME280;45961;53.574;55.878;2022-08-07T05:32:50;100288.41;;;26.99;44.51
60089;BME280;45961;53.574;55.878;2022-08-07T05:33:53;100291.81;;;27.01;44.70
60089;BME280;45961;53.574;55.878;2022-08-07T05:34:57;100282.25;;;26.99;44.85
60089;BME280;45961;53.574;55.878;2022-08-07T05:35:59;100292.22;;;27.25;44.70
60089;BME280;45961;53.574;55.878;2022-08-07T05:37:02;100292.31;;;27.24;45.09
60089;BME280;45961;53.574;55.878;2022-08-07T05:38:09;100289.13;;;27.33;44.42
60089;BME280;45961;53.574;55.878;2022-08-07T05:39:13;100285.13;;;27.26;44.24
60089;BME280;45961;53.574;55.878;2022-08-07T05:40:15;100298.72;;;26.90;43.92
60089;BME280;45961;53.574;55.878;2022-08-07T05:41:18;100287.13;;;27.22;43.99
60089;BME280;45961;53.574;55.878;2022-08-07T05:42:23;100276.50;;;27.37;43.80
60089;BME280;45961;53.574;55.878;2022-08-07T05:43:25;100286.38;;;27.35;43.72
60089;BME280;45961;53.574;55.878;2022-08-07T05:44:27;100286.28;;;27.06;44.00
60089;BME280;45961;53.574;55.878;2022-08-07T05:45:32;100283.78;;;27.19;43.61
60089;BME280;45961;53.574;55.878;2022-08-07T05:46:39;100276.69;;;27.34;43.90
60089;BME280;45961;53.574;55.878;2022-08-07T05:47:41;100259.47;;;27.25;43.60
60089;BME280;45961;53.574;55.878;2022-08-07T05:48:42;100274.16;;;27.46;43.29
60089;BME280;45961;53.574;55.878;2022-08-07T05:49:48;100278.88;;;27.41;43.11
60089;BME280;45961;53.574;55.878;2022-08-07T05:50:51;100271.84;;;27.40;42.97
60089;BME280;45961;53.574;55.878;2022-08-07T05:51:54;100274.53;;;27.40;43.16
60089;BME280;45961;53.574;55.878;2022-08-07T05:52:57;100272.06;;;27.51;43.17
60089;BME280;45961;53.574;55.878;2022-08-07T05:54:00;100272.47;;;27.60;43.27
60089;BME280;45961;53.574;55.878;2022-08-07T05:55:01;100275.38;;;27.41;43.52
60089;BME280;45961;53.574;55.878;2022-08-07T05:56:04;100265.97;;;27.49;43.87
60089;BME280;45961;53.574;55.878;2022-08-07T05:57:09;100270.44;;;27.49;44.29
60089;BME280;45961;53.574;55.878;2022-08-07T05:58:14;100274.91;;;27.48;43.77
60089;BME280;45961;53.574;55.878;2022-08-07T05:59:17;100270.94;;;27.70;43.70
60089;BME280;45961;53.574;55.878;2022-08-07T06:00:23;100266.81;;;27.94;43.20
60089;BME280;45961;53.574;55.878;2022-08-07T06:01:33;100252.63;;;28.08;40.71
60089;BME280;45961;53.574;55.878;2022-08-07T06:02:35;100250.63;;;28.12;39.41
60089;BME280;45961;53.574;55.878;2022-08-07T06:03:43;100250.53;;;28.13;38.94
60089;BME280;45961;53.574;55.878;2022-08-07T06:04:50;100251.25;;;28.29;39.21
60089;BME280;45961;53.574;55.878;2022-08-07T06:05:54;100265.53;;;28.43;39.78
60089;BME280;45961;53.574;55.878;2022-08-07T06:06:57;100256.44;;;28.60;39.85
60089;BME280;45961;53.574;55.878;2022-08-07T06:08:04;100249.19;;;28.62;39.62
60089;BME280;45961;53.574;55.878;2022-08-07T06:09:06;100245.28;;;28.40;40.78
60089;BME280;45961;53.574;55.878;2022-08-07T06:10:12;100231.69;;;28.31;40.32
60089;BME280;45961;53.574;55.878;2022-08-07T06:11:14;100259.19;;;28.58;40.16
60089;BME280;45961;53.574;55.878;2022-08-07T06:12:17;100251.94;;;28.74;40.03
60089;BME280;45961;53.574;55.878;2022-08-07T06:13:19;100247.69;;;28.85;40.48
60089;BME280;45961;53.574;55.878;2022-08-07T06:14:20;100253.25;;;28.94;39.72
60089;BME280;45961;53.574;55.878;2022-08-07T06:15:25;100254.91;;;28.97;39.21
60089;BME280;45961;53.574;55.878;2022-08-07T06:16:32;100256.22;;;28.90;39.42
60089;BME280;45961;53.574;55.878;2022-08-07T06:17:34;100253.84;;;28.99;38.95
60089;BME280;45961;53.574;55.878;2022-08-07T06:18:37;100253.94;;;28.98;38.99
60089;BME280;45961;53.574;55.878;2022-08-07T06:19:39;100240.16;;;28.91;38.07
60089;BME280;45961;53.574;55.878;2022-08-07T06:20:43;100247.38;;;28.89;37.93
60089;BME280;45961;53.574;55.878;2022-08-07T06:21:46;100253.88;;;28.85;37.59
60089;BME280;45961;53.574;55.878;2022-08-07T06:22:48;100243.22;;;28.85;37.84
60089;BME280;45961;53.574;55.878;2022-08-07T06:24:03;100247.81;;;28.83;37.93
60089;BME280;45961;53.574;55.878;2022-08-07T06:25:05;100246.53;;;28.89;37.11
60089;BME280;45961;53.574;55.878;2022-08-07T06:26:10;100248.88;;;28.93;36.52
60089;BME280;45961;53.574;55.878;2022-08-07T06:27:23;100247.03;;;29.08;37.68
60089;BME280;45961;53.574;55.878;2022-08-07T06:28:25;100251.09;;;29.14;37.50
60089;BME280;45961;53.574;55.878;2022-08-07T06:29:27;100249.06;;;29.05;36.77
60089;BME280;45961;53.574;55.878;2022-08-07T06:30:29;100244.25;;;28.97;37.14
60089;BME280;45961;53.574;55.878;2022-08-07T06:31:31;100245.94;;;28.98;36.81
60089;BME280;45961;53.574;55.878;2022-08-07T06:32:32;100251.50;;;28.53;36.65
60089;BME280;45961;53.574;55.878;2022-08-07T06:33:36;100246.19;;;28.81;37.17
60089;BME280;45961;53.574;55.878;2022-08-07T06:34:37;100248.75;;;28.82;37.06
60089;BME280;45961;53.574;55.878;2022-08-07T06:35:39;100239.75;;;28.97;37.49
60089;BME280;45961;53.574;55.878;2022-08-07T06:36:40;100238.94;;;29.22;37.65
60089;BME280;45961;53.574;55.878;2022-08-07T06:37:41;100242.16;;;29.15;37.27
60089;BME280;45961;53.574;55.878;2022-08-07T06:38:43;100242.56;;;29.21;37.51
60089;BME280;45961;53.574;55.878;2022-08-07T06:39:45;100231.38;;;29.29;37.71
60089;BME280;45961;53.574;55.878;2022-08-07T06:40:51;100242.97;;;29.02;37.08
60089;BME280;45961;53.574;55.878;2022-08-07T06:42:16;100239.78;;;29.10;37.25